Time,TemperatureF,DewpointF,PressureIn,WindDirection,WindDirectionDegrees,WindSpeedMPH,WindSpeedGustMPH,Humidity,HourlyPrecipIn,Conditions,Clouds,dailyrainin,SoftwareType,DateUTC
2013-05-10 00:01:00,55.6,54.5,29.91,SE,125,0.2,2.3,96,0.00,RA,,0.00,WeatherDisplay:10.37,2013-05-10 04:01:00,
2013-05-10 00:03:00,55.6,54.5,29.91,SE,125,0.0,0.0,96,0.00,RA,,0.00,WeatherDisplay:10.37,2013-05-10 04:03:00,
2013-05-10 00:08:00,55.6,54.5,29.91,SE,125,0.0,1.2,96,0.00,RA,,0.00,WeatherDisplay:10.37,2013-05-10 04:08:00,
2013-05-10 00:13:00,55.6,54.5,29.91,South,186,0.8,3.5,96,0.00,FEW,,0.00,WeatherDisplay:10.37,2013-05-10 04:13:00,
2013-05-10 00:18:00,55.7,54.6,29.91,South,185,0.3,1.2,96,0.00,FEW,,0.00,WeatherDisplay:10.37,2013-05-10 04:18:00,
2013-05-10 00:23:00,55.7,54.6,29.91,South,185,0.3,2.3,96,0.00,FEW,,0.00,WeatherDisplay:10.37,2013-05-10 04:23:00,
2013-05-10 00:28:00,55.7,54.6,29.91,South,185,0.0,1.2,96,0.00,FEW,,0.00,WeatherDisplay:10.37,2013-05-10 04:28:00,
2013-05-10 00:33:00,55.6,54.5,29.91,South,185,0.4,2.3,96,0.00,FEW,,0.00,WeatherDisplay:10.37,2013-05-10 04:33:00,
2013-05-10 00:38:00,55.5,54.4,29.91,South,185,0.0,0.0,96,0.00,FEW,,0.00,WeatherDisplay:10.37,2013-05-10 04:38:00,
2013-05-10 00:43:00,55.4,54.3,29.92,South,185,0.1,1.2,96,0.00,FEW,,0.00,WeatherDisplay:10.37,2013-05-10 04:43:00,
2013-05-10 00:49:00,55.3,54.2,29.92,SSE,153,0.2,3.5,96,0.00,FEW,,0.00,WeatherDisplay:10.37,2013-05-10 04:49:00,
2013-05-10 00:54:00,55.3,54.2,29.91,SSE,153,0.5,2.3,96,0.00,FEW,,0.00,WeatherDisplay:10.37,2013-05-10 04:54:00,
2013-05-10 00:59:00,55.1,54.0,29.91,SSE,153,0.0,1.2,96,0.00,FEW,,0.00,WeatherDisplay:10.37,2013-05-10 04:59:00,
2013-05-10 01:04:00,55.0,53.9,29.91,SSE,153,0.0,0.0,96,0.00,FEW,,0.00,WeatherDisplay:10.37,2013-05-10 05:04:00,
2013-05-10 01:09:00,54.9,54.1,29.91,SSE,153,1.2,2.3,97,0.00,FEW,,0.00,WeatherDisplay:10.37,2013-05-10 05:09:00,
2013-05-10 01:14:00,54.8,53.7,29.91,ESE,119,2.6,3.5,96,0.00,FEW,,0.00,WeatherDisplay:10.37,2013-05-10 05:14:00,
2013-05-10 01:19:00,54.8,53.7,29.91,ESE,111,1.1,3.5,96,0.00,FEW,,0.00,WeatherDisplay:10.37,2013-05-10 05:19:00,
2013-05-10 01:24:00,54.6,53.8,29.91,ESE,111,0.2,1.2,97,0.00,FEW,,0.00,WeatherDisplay:10.37,2013-05-10 05:24:00,
2013-05-10 01:29:00,54.6,53.8,29.91,SE,128,0.7,2.0,97,0.00,FEW,,0.00,WeatherDisplay:10.37,2013-05-10 05:29:00,
2013-05-10 01:35:00,54.6,53.8,29.91,ESE,115,1.8,3.5,97,0.00,FEW,,0.00,WeatherDisplay:10.37,2013-05-10 05:35:00,
2013-05-10 01:40:00,54.6,53.8,29.90,ESE,115,1.9,3.5,97,0.00,FEW,,0.00,WeatherDisplay:10.37,2013-05-10 05:40:00,
2013-05-10 01:45:00,54.4,53.6,29.91,SE,136,1.8,3.5,97,0.00,FEW,,0.00,WeatherDisplay:10.37,2013-05-10 05:45:00,
2013-05-10 01:50:00,54.3,53.5,29.91,SE,134,1.7,2.3,97,0.00,FEW,,0.00,WeatherDisplay:10.37,2013-05-10 05:50:00,
2013-05-10 01:55:00,54.2,53.4,29.91,ESE,117,1.8,3.5,97,0.00,FEW,,0.00,WeatherDisplay:10.37,2013-05-10 05:55:00,
2013-05-10 02:00:00,54.1,53.3,29.91,ESE,112,2.0,3.5,97,0.00,FEW,,0.00,WeatherDisplay:10.37,2013-05-10 06:00:00,
2013-05-10 02:05:00,54.1,53.3,29.91,ESE,113,1.1,3.5,97,0.00,SCT,,0.00,WeatherDisplay:10.37,2013-05-10 06:05:00,
2013-05-10 02:11:00,54.1,53.3,29.91,ESE,113,1.2,2.3,97,0.00,SCT,,0.00,WeatherDisplay:10.37,2013-05-10 06:11:00,
2013-05-10 02:16:00,54.0,53.2,29.91,ESE,118,0.0,0.0,97,0.00,SCT,,0.00,WeatherDisplay:10.37,2013-05-10 06:16:00,
2013-05-10 02:21:00,54.1,53.3,29.91,ESE,116,0.3,2.3,97,0.00,SCT,,0.00,WeatherDisplay:10.37,2013-05-10 06:21:00,
2013-05-10 02:26:00,54.1,53.3,29.91,ESE,121,0.6,3.5,97,0.00,SCT,,0.00,WeatherDisplay:10.37,2013-05-10 06:26:00,
2013-05-10 02:31:00,54.2,53.4,29.91,SE,125,0.7,2.3,97,0.00,SCT,,0.00,WeatherDisplay:10.37,2013-05-10 06:31:00,
2013-05-10 02:36:00,54.2,53.4,29.91,SE,125,0.1,0.0,97,0.00,SCT,,0.00,WeatherDisplay:10.37,2013-05-10 06:36:00,
2013-05-10 02:41:00,54.1,53.3,29.91,SE,125,0.1,2.3,97,0.00,SCT,,0.00,WeatherDisplay:10.37,2013-05-10 06:41:00,
2013-05-10 02:46:00,54.1,53.3,29.91,SE,125,0.0,0.0,97,0.00,SCT,,0.00,WeatherDisplay:10.37,2013-05-10 06:46:00,
2013-05-10 02:51:00,53.9,53.1,29.91,SE,125,1.3,2.3,97,0.00,SCT,,0.00,WeatherDisplay:10.37,2013-05-10 06:51:00,
2013-05-10 02:56:00,53.9,53.1,29.92,SE,125,2.2,3.5,97,0.00,SCT,,0.00,WeatherDisplay:10.37,2013-05-10 06:56:00,
2013-05-10 03:02:00,53.9,53.1,29.92,SE,125,2.6,3.5,97,0.00,BKN,,0.00,WeatherDisplay:10.37,2013-05-10 07:02:00,
2013-05-10 03:07:00,53.9,53.1,29.92,SE,125,1.3,3.5,97,0.00,BKN,,0.00,WeatherDisplay:10.37,2013-05-10 07:07:00,
2013-05-10 03:12:00,54.0,54.0,29.92,SE,125,2.2,3.5,100,0.00,BKN,,0.00,WeatherDisplay:10.37,2013-05-10 07:12:00,
2013-05-10 03:17:00,54.0,53.4,29.92,SE,125,0.0,1.2,98,0.00,BKN,,0.00,WeatherDisplay:10.37,2013-05-10 07:17:00,
2013-05-10 03:22:00,54.1,53.5,29.92,SE,125,0.0,0.0,98,0.00,BKN,,0.00,WeatherDisplay:10.37,2013-05-10 07:22:00,
2013-05-10 03:27:00,54.1,53.5,29.92,SE,125,0.0,0.0,98,0.00,BKN,,0.00,WeatherDisplay:10.37,2013-05-10 07:27:00,
2013-05-10 03:32:00,54.0,53.4,29.92,SE,125,0.0,0.0,98,0.00,BKN,,0.00,WeatherDisplay:10.37,2013-05-10 07:32:00,
2013-05-10 03:38:00,53.9,53.1,29.92,SE,125,0.0,0.0,97,0.00,BKN,,0.00,WeatherDisplay:10.37,2013-05-10 07:38:00,
2013-05-10 03:43:00,53.8,53.0,29.93,SE,125,0.0,1.2,97,0.00,BKN,,0.00,WeatherDisplay:10.37,2013-05-10 07:43:00,
2013-05-10 03:48:00,53.7,52.9,29.92,SE,125,0.0,0.0,97,0.00,BKN,,0.00,WeatherDisplay:10.37,2013-05-10 07:48:00,
2013-05-10 03:53:00,53.8,53.2,29.93,SE,125,0.0,3.5,98,0.00,BKN,,0.00,WeatherDisplay:10.37,2013-05-10 07:53:00,
2013-05-10 03:58:00,54.0,53.4,29.92,SE,125,1.0,3.5,98,0.00,BKN,,0.00,WeatherDisplay:10.37,2013-05-10 07:58:00,
2013-05-10 04:03:00,54.2,53.6,29.92,SE,125,0.0,0.0,98,0.00,SCT,,0.00,WeatherDisplay:10.37,2013-05-10 08:03:00,
2013-05-10 04:08:00,54.2,53.6,29.92,SE,125,0.3,2.3,98,0.00,SCT,,0.00,WeatherDisplay:10.37,2013-05-10 08:08:00,
2013-05-10 04:13:00,54.2,53.6,29.92,SE,125,0.6,2.3,98,0.00,SCT,,0.00,WeatherDisplay:10.37,2013-05-10 08:13:00,
2013-05-10 04:18:00,54.1,53.5,29.93,SE,125,0.0,0.0,98,0.00,SCT,,0.00,WeatherDisplay:10.37,2013-05-10 08:18:00,
2013-05-10 04:23:00,53.9,53.3,29.92,SE,125,0.8,2.3,98,0.00,SCT,,0.00,WeatherDisplay:10.37,2013-05-10 08:23:00,
2013-05-10 04:28:00,54.0,53.4,29.92,SE,125,0.4,3.5,98,0.00,SCT,,0.00,WeatherDisplay:10.37,2013-05-10 08:28:00,
2013-05-10 04:34:00,54.1,53.5,29.92,SE,125,0.7,2.3,98,0.00,SCT,,0.00,WeatherDisplay:10.37,2013-05-10 08:34:00,
2013-05-10 04:39:00,54.2,53.6,29.93,SE,125,0.4,1.2,98,0.00,SCT,,0.00,WeatherDisplay:10.37,2013-05-10 08:39:00,
2013-05-10 04:44:00,54.2,53.6,29.93,SE,125,0.0,0.0,98,0.00,SCT,,0.00,WeatherDisplay:10.37,2013-05-10 08:44:00,
2013-05-10 04:49:00,54.2,53.6,29.93,SE,126,2.1,3.0,98,0.00,SCT,,0.00,WeatherDisplay:10.37,2013-05-10 08:49:00,
2013-05-10 04:54:00,54.4,53.8,29.93,SSW,203,0.6,3.5,98,0.00,SCT,,0.00,WeatherDisplay:10.37,2013-05-10 08:54:00,
2013-05-10 04:59:00,54.4,53.8,29.93,SSW,203,0.0,1.2,98,0.00,SCT,,0.00,WeatherDisplay:10.37,2013-05-10 08:59:00,
2013-05-10 05:04:00,54.2,53.6,29.93,SSW,203,0.0,0.0,98,0.00,SCT,,0.00,WeatherDisplay:10.37,2013-05-10 09:04:00,
2013-05-10 05:09:00,53.7,52.9,29.93,South,174,2.0,3.5,97,0.00,SCT,,0.00,WeatherDisplay:10.37,2013-05-10 09:09:00,
2013-05-10 05:14:00,53.2,52.4,29.94,South,174,0.0,0.0,97,0.00,FEW,,0.00,WeatherDisplay:10.37,2013-05-10 09:14:00,
2013-05-10 05:19:00,53.1,52.6,29.94,South,174,1.7,2.3,98,0.00,FEW,,0.01,WeatherDisplay:10.37,2013-05-10 09:19:00,
2013-05-10 05:24:00,53.2,52.7,29.94,South,174,2.0,3.5,98,0.01,RA,,0.01,WeatherDisplay:10.37,2013-05-10 09:24:00,
2013-05-10 05:29:00,53.6,53.0,29.94,West,263,0.2,2.3,98,0.01,RA,,0.01,WeatherDisplay:10.37,2013-05-10 09:29:00,
2013-05-10 05:34:00,53.7,53.1,29.94,West,263,0.0,0.0,98,0.01,FEW,,0.01,WeatherDisplay:10.37,2013-05-10 09:34:00,
2013-05-10 05:39:00,53.8,53.2,29.94,West,263,0.0,0.0,98,0.01,FEW,,0.01,WeatherDisplay:10.37,2013-05-10 09:39:00,
2013-05-10 05:44:00,53.2,52.4,29.93,West,263,2.0,2.3,97,0.01,FEW,,0.01,WeatherDisplay:10.37,2013-05-10 09:44:00,
2013-05-10 05:49:00,52.7,51.9,29.94,West,263,0.0,1.2,97,0.01,FEW,,0.01,WeatherDisplay:10.37,2013-05-10 09:49:00,
2013-05-10 05:55:00,52.6,52.1,29.94,West,263,1.5,2.3,98,0.01,FEW,,0.01,WeatherDisplay:10.37,2013-05-10 09:55:00,
2013-05-10 06:00:00,52.7,52.2,29.95,West,263,0.9,3.5,98,0.01,FEW,,0.01,WeatherDisplay:10.37,2013-05-10 10:00:00,
2013-05-10 06:05:00,52.6,52.1,29.94,West,263,2.3,3.5,98,0.01,FEW,,0.01,WeatherDisplay:10.37,2013-05-10 10:05:00,
2013-05-10 06:10:00,52.3,51.8,29.94,West,263,1.9,3.5,98,0.01,FEW,,0.01,WeatherDisplay:10.37,2013-05-10 10:10:00,
2013-05-10 06:15:00,52.2,51.7,29.95,SSW,208,0.0,2.3,98,0.01,FEW,,0.01,WeatherDisplay:10.37,2013-05-10 10:15:00,
2013-05-10 06:20:00,52.4,51.9,29.95,SSW,208,0.0,0.0,98,0.01,FEW,,0.01,WeatherDisplay:10.37,2013-05-10 10:20:00,
2013-05-10 06:25:00,52.9,52.4,29.95,SSW,208,0.0,0.0,98,0.00,FEW,,0.01,WeatherDisplay:10.37,2013-05-10 10:25:00,
2013-05-10 06:30:00,53.4,52.8,29.95,SSW,208,0.0,1.0,98,0.00,FEW,,0.01,WeatherDisplay:10.37,2013-05-10 10:30:00,
2013-05-10 06:35:00,53.7,53.1,29.95,SSW,208,1.1,2.3,98,0.00,FEW,,0.01,WeatherDisplay:10.37,2013-05-10 10:35:00,
2013-05-10 06:40:00,54.0,53.4,29.95,SW,231,1.2,2.3,98,0.00,FEW,,0.01,WeatherDisplay:10.37,2013-05-10 10:40:00,
2013-05-10 06:45:00,54.3,53.7,29.95,SW,231,0.8,2.3,98,0.00,FEW,,0.01,WeatherDisplay:10.37,2013-05-10 10:45:00,
2013-05-10 06:50:00,54.4,53.8,29.96,SW,231,0.3,3.5,98,0.00,FEW,,0.01,WeatherDisplay:10.37,2013-05-10 10:50:00,
2013-05-10 06:55:00,54.5,53.9,29.96,SW,231,0.0,1.2,98,0.00,FEW,,0.01,WeatherDisplay:10.37,2013-05-10 10:55:00,
2013-05-10 07:00:00,54.5,53.9,29.96,SW,231,0.0,1.2,98,0.00,FEW,,0.01,WeatherDisplay:10.37,2013-05-10 11:00:00,
2013-05-10 07:06:00,54.6,54.0,29.96,SW,229,0.8,2.3,98,0.00,SCT,,0.01,WeatherDisplay:10.37,2013-05-10 11:06:00,
2013-05-10 07:11:00,54.7,54.1,29.96,SW,229,0.0,0.0,98,0.00,SCT,,0.01,WeatherDisplay:10.37,2013-05-10 11:11:00,
2013-05-10 07:16:00,54.8,54.2,29.96,SW,229,0.0,0.0,98,0.00,SCT,,0.01,WeatherDisplay:10.37,2013-05-10 11:16:00,
2013-05-10 07:21:00,54.7,54.1,29.97,SW,229,0.0,0.0,98,0.00,SCT,,0.01,WeatherDisplay:10.37,2013-05-10 11:21:00,
2013-05-10 07:26:00,54.8,54.2,29.97,SW,229,0.3,2.3,98,0.00,SCT,,0.01,WeatherDisplay:10.37,2013-05-10 11:26:00,
2013-05-10 07:31:00,54.9,54.3,29.97,SW,229,0.0,0.0,98,0.00,SCT,,0.01,WeatherDisplay:10.37,2013-05-10 11:31:00,
2013-05-10 07:36:00,55.2,54.6,29.97,SW,229,0.0,0.0,98,0.00,SCT,,0.01,WeatherDisplay:10.37,2013-05-10 11:36:00,
2013-05-10 07:41:00,55.5,54.9,29.96,SW,229,0.0,1.0,98,0.00,SCT,,0.01,WeatherDisplay:10.37,2013-05-10 11:41:00,
2013-05-10 07:46:00,56.0,55.4,29.97,SW,229,0.0,0.0,98,0.00,SCT,,0.01,WeatherDisplay:10.37,2013-05-10 11:46:00,
2013-05-10 07:51:00,56.6,56.3,29.96,SSW,193,0.1,0.0,99,0.00,SCT,,0.01,WeatherDisplay:10.37,2013-05-10 11:51:00,
2013-05-10 07:56:00,57.1,56.8,29.96,East,98,1.2,3.5,99,0.00,SCT,,0.01,WeatherDisplay:10.37,2013-05-10 11:56:00,
2013-05-10 08:01:00,57.5,57.2,29.97,East,81,0.6,2.3,99,0.00,SCT,,0.01,WeatherDisplay:10.37,2013-05-10 12:01:00,
2013-05-10 08:07:00,58.1,57.8,29.97,East,93,1.3,3.5,99,0.00,SCT,,0.01,WeatherDisplay:10.37,2013-05-10 12:07:00,
2013-05-10 08:12:00,58.5,58.2,29.97,East,94,1.1,3.5,99,0.00,SCT,,0.01,WeatherDisplay:10.37,2013-05-10 12:12:00,
2013-05-10 08:17:00,59.0,58.4,29.97,East,101,1.9,3.5,98,0.00,SCT,,0.01,WeatherDisplay:10.37,2013-05-10 12:17:00,
2013-05-10 08:22:00,59.2,58.3,29.97,ESE,117,0.0,0.0,97,0.00,SCT,,0.01,WeatherDisplay:10.37,2013-05-10 12:22:00,
2013-05-10 08:27:00,59.9,58.8,29.97,ESE,117,0.2,1.2,96,0.00,SCT,,0.01,WeatherDisplay:10.37,2013-05-10 12:27:00,
2013-05-10 08:32:00,60.5,59.1,29.97,ESE,117,0.6,2.3,95,0.00,SCT,,0.01,WeatherDisplay:10.37,2013-05-10 12:32:00,
2013-05-10 08:37:00,60.7,58.4,29.97,ESE,117,0.2,1.2,92,0.00,SCT,,0.01,WeatherDisplay:10.37,2013-05-10 12:37:00,
2013-05-10 08:42:00,61.2,58.6,29.97,ESE,117,0.0,0.0,91,0.00,SCT,,0.01,WeatherDisplay:10.37,2013-05-10 12:42:00,
2013-05-10 08:47:00,61.5,57.9,29.97,SE,144,0.5,3.5,88,0.00,SCT,,0.01,WeatherDisplay:10.37,2013-05-10 12:47:00,
2013-05-10 08:52:00,61.9,58.3,29.97,South,186,0.2,1.2,88,0.00,SCT,,0.01,WeatherDisplay:10.37,2013-05-10 12:52:00,
2013-05-10 08:57:00,62.2,58.3,29.97,SW,219,3.9,5.0,87,0.00,SCT,,0.01,WeatherDisplay:10.37,2013-05-10 12:57:00,
2013-05-10 09:02:00,62.4,57.8,29.97,WSW,237,0.3,1.2,85,0.00,SCT,,0.01,WeatherDisplay:10.37,2013-05-10 13:02:00,
2013-05-10 09:07:00,62.5,57.6,29.97,WSW,237,0.1,1.2,84,0.00,SCT,,0.01,WeatherDisplay:10.37,2013-05-10 13:07:00,
2013-05-10 09:12:00,62.6,57.7,29.97,WSW,244,4.0,5.8,84,0.00,SCT,,0.01,WeatherDisplay:10.37,2013-05-10 13:12:00,
2013-05-10 09:18:00,62.6,57.7,29.97,WSW,244,1.2,4.6,84,0.00,SCT,,0.01,WeatherDisplay:10.37,2013-05-10 13:18:00,
2013-05-10 09:23:00,62.8,57.2,29.97,WSW,252,0.1,3.5,82,0.00,SCT,,0.01,WeatherDisplay:10.37,2013-05-10 13:23:00,
2013-05-10 09:28:00,63.2,57.6,29.97,WSW,252,1.0,1.2,82,0.00,SCT,,0.01,WeatherDisplay:10.37,2013-05-10 13:28:00,
2013-05-10 09:33:00,63.8,57.9,29.96,WSW,252,0.1,1.2,81,0.00,SCT,,0.01,WeatherDisplay:10.37,2013-05-10 13:33:00,
2013-05-10 09:38:00,64.3,58.7,29.97,WSW,252,1.6,0.0,82,0.00,SCT,,0.01,WeatherDisplay:10.37,2013-05-10 13:38:00,
2013-05-10 09:43:00,64.8,58.5,29.97,WSW,252,0.9,3.5,80,0.00,SCT,,0.01,WeatherDisplay:10.37,2013-05-10 13:43:00,
2013-05-10 09:48:00,65.1,58.4,29.97,WSW,250,0.1,1.2,79,0.00,SCT,,0.01,WeatherDisplay:10.37,2013-05-10 13:48:00,
2013-05-10 09:53:00,65.6,59.3,29.97,WSW,250,0.1,1.2,80,0.00,SCT,,0.01,WeatherDisplay:10.37,2013-05-10 13:53:00,
2013-05-10 09:58:00,66.1,59.4,29.97,NW,321,0.0,0.0,79,0.00,SCT,,0.01,WeatherDisplay:10.37,2013-05-10 13:58:00,
2013-05-10 10:03:00,66.6,59.2,29.97,NW,320,0.0,1.2,77,0.00,BKN,,0.01,WeatherDisplay:10.37,2013-05-10 14:03:00,
2013-05-10 10:09:00,67.1,58.9,29.97,WNW,301,4.1,5.8,75,0.00,BKN,,0.01,WeatherDisplay:10.37,2013-05-10 14:09:00,
2013-05-10 10:14:00,67.1,58.5,29.97,WNW,293,0.0,4.6,74,0.00,BKN,,0.01,WeatherDisplay:10.37,2013-05-10 14:14:00,
2013-05-10 10:19:00,67.4,59.2,29.97,WNW,293,0.0,2.3,75,0.00,BKN,,0.01,WeatherDisplay:10.37,2013-05-10 14:19:00,
2013-05-10 10:24:00,67.8,59.6,29.97,WNW,293,0.7,2.3,75,0.00,BKN,,0.01,WeatherDisplay:10.37,2013-05-10 14:24:00,
2013-05-10 10:29:00,68.1,59.1,29.96,SW,232,1.9,6.9,73,0.00,BKN,,0.01,WeatherDisplay:10.37,2013-05-10 14:29:00,
2013-05-10 10:34:00,68.1,58.3,29.96,SW,232,0.6,3.5,71,0.00,BKN,,0.01,WeatherDisplay:10.37,2013-05-10 14:34:00,
2013-05-10 10:39:00,68.3,58.5,29.96,SW,232,0.0,0.0,71,0.00,BKN,,0.01,WeatherDisplay:10.37,2013-05-10 14:39:00,
2013-05-10 10:45:00,68.7,59.7,29.96,SW,232,0.0,0.0,73,0.00,BKN,,0.01,WeatherDisplay:10.37,2013-05-10 14:45:00,
2013-05-10 10:50:00,69.2,61.3,29.96,SSW,200,1.6,4.6,76,0.00,BKN,,0.01,WeatherDisplay:10.37,2013-05-10 14:50:00,
2013-05-10 10:55:00,69.5,60.8,29.96,South,186,3.3,4.6,74,0.00,BKN,,0.01,WeatherDisplay:10.37,2013-05-10 14:55:00,
2013-05-10 11:00:00,70.0,60.2,29.95,WSW,237,1.6,4.6,71,0.00,BKN,,0.01,WeatherDisplay:10.37,2013-05-10 15:00:00,
2013-05-10 11:05:00,70.4,58.9,29.95,WSW,241,1.1,3.5,67,0.00,BKN,,0.01,WeatherDisplay:10.37,2013-05-10 15:05:00,
2013-05-10 11:10:00,70.4,59.3,29.95,WSW,240,0.6,3.0,68,0.00,BKN,,0.01,WeatherDisplay:10.37,2013-05-10 15:10:00,
2013-05-10 11:15:00,70.5,59.0,29.95,WSW,252,6.1,9.2,67,0.00,BKN,,0.01,WeatherDisplay:10.37,2013-05-10 15:15:00,
2013-05-10 11:21:00,70.2,58.7,29.96,WSW,250,3.7,6.0,67,0.00,BKN,,0.01,WeatherDisplay:10.37,2013-05-10 15:21:00,
2013-05-10 11:26:00,70.1,58.6,29.96,SW,227,0.1,3.5,67,0.00,BKN,,0.01,WeatherDisplay:10.37,2013-05-10 15:26:00,
2013-05-10 11:31:00,70.6,58.7,29.95,SW,227,0.1,1.2,66,0.00,BKN,,0.01,WeatherDisplay:10.37,2013-05-10 15:31:00,
2013-05-10 11:36:00,71.3,59.8,29.95,WNW,289,0.8,2.3,67,0.00,BKN,,0.01,WeatherDisplay:10.37,2013-05-10 15:36:00,
2013-05-10 11:41:00,72.2,60.2,29.95,SSW,209,4.1,7.0,66,0.00,BKN,,0.01,WeatherDisplay:10.37,2013-05-10 15:41:00,
2013-05-10 11:46:00,72.3,57.6,29.95,WNW,287,1.4,3.5,60,0.00,BKN,,0.01,WeatherDisplay:10.37,2013-05-10 15:46:00,
2013-05-10 11:51:00,72.8,58.1,29.95,SW,229,2.7,6.9,60,0.00,BKN,,0.01,WeatherDisplay:10.37,2013-05-10 15:51:00,
2013-05-10 11:57:00,73.0,57.8,29.94,South,183,2.2,3.5,59,0.00,BKN,,0.01,WeatherDisplay:10.37,2013-05-10 15:57:00,
2013-05-10 12:02:00,73.2,58.5,29.94,West,275,2.0,5.0,60,0.00,BKN,,0.01,WeatherDisplay:10.37,2013-05-10 16:02:00,
2013-05-10 12:07:00,72.7,55.6,29.94,West,269,3.0,6.9,55,0.00,BKN,,0.01,WeatherDisplay:10.37,2013-05-10 16:07:00,
2013-05-10 12:12:00,72.1,56.0,29.94,West,265,1.1,3.0,57,0.00,BKN,,0.01,WeatherDisplay:10.37,2013-05-10 16:12:00,
2013-05-10 12:17:00,71.8,55.3,29.94,West,281,2.1,3.5,56,0.00,BKN,,0.01,WeatherDisplay:10.37,2013-05-10 16:17:00,
2013-05-10 12:22:00,71.6,55.6,29.93,West,281,0.0,1.0,57,0.00,BKN,,0.01,WeatherDisplay:10.37,2013-05-10 16:22:00,
2013-05-10 12:27:00,71.9,56.3,29.93,South,178,2.3,3.5,58,0.00,BKN,,0.01,WeatherDisplay:10.37,2013-05-10 16:27:00,
2013-05-10 12:32:00,72.7,58.0,29.93,ESE,117,1.3,3.5,60,0.00,BKN,,0.01,WeatherDisplay:10.37,2013-05-10 16:32:00,
2013-05-10 12:37:00,73.0,56.4,29.93,ESE,121,0.4,1.2,56,0.00,BKN,,0.01,WeatherDisplay:10.37,2013-05-10 16:37:00,
2013-05-10 12:43:00,74.0,56.3,29.93,South,183,0.8,3.5,54,0.00,BKN,,0.01,WeatherDisplay:10.37,2013-05-10 16:43:00,
2013-05-10 12:48:00,74.2,56.0,29.93,SW,215,2.1,5.0,53,0.00,BKN,,0.01,WeatherDisplay:10.37,2013-05-10 16:48:00,
2013-05-10 12:53:00,74.4,56.7,29.93,SW,214,0.6,1.2,54,0.00,BKN,,0.01,WeatherDisplay:10.37,2013-05-10 16:53:00,
2013-05-10 12:58:00,74.4,54.0,29.93,WSW,239,3.1,4.0,49,0.00,BKN,,0.01,WeatherDisplay:10.37,2013-05-10 16:58:00,
2013-05-10 13:03:00,74.8,56.0,29.93,SSW,198,1.6,3.5,52,0.00,BKN,,0.01,WeatherDisplay:10.37,2013-05-10 17:03:00,
2013-05-10 13:08:00,75.0,56.2,29.93,ESE,112,2.1,3.5,52,0.00,BKN,,0.01,WeatherDisplay:10.37,2013-05-10 17:08:00,
2013-05-10 13:14:00,74.6,55.8,29.93,ENE,59,0.3,1.2,52,0.00,BKN,,0.01,WeatherDisplay:10.37,2013-05-10 17:14:00,
2013-05-10 13:19:00,74.2,57.0,29.93,ENE,61,0.9,3.5,55,0.00,BKN,,0.01,WeatherDisplay:10.37,2013-05-10 17:19:00,
2013-05-10 13:24:00,73.8,55.1,29.93,SSW,200,3.4,5.8,52,0.00,BKN,,0.01,WeatherDisplay:10.37,2013-05-10 17:24:00,
2013-05-10 13:29:00,73.7,55.0,29.92,SSE,164,2.1,5.8,52,0.00,BKN,,0.01,WeatherDisplay:10.37,2013-05-10 17:29:00,
2013-05-10 13:34:00,74.2,55.4,29.92,SW,217,1.4,4.0,52,0.00,BKN,,0.01,WeatherDisplay:10.37,2013-05-10 17:34:00,
2013-05-10 13:39:00,75.1,56.8,29.92,SW,232,3.1,5.0,53,0.00,BKN,,0.01,WeatherDisplay:10.37,2013-05-10 17:39:00,
2013-05-10 13:44:00,75.5,53.9,29.92,SW,233,3.3,4.6,47,0.00,BKN,,0.01,WeatherDisplay:10.37,2013-05-10 17:44:00,
2013-05-10 13:50:00,75.4,53.8,29.92,SW,231,0.0,3.5,47,0.00,BKN,,0.01,WeatherDisplay:10.37,2013-05-10 17:50:00,
2013-05-10 13:55:00,75.3,54.3,29.92,SW,225,5.7,10.4,48,0.00,BKN,,0.01,WeatherDisplay:10.37,2013-05-10 17:55:00,
2013-05-10 14:00:00,75.2,54.7,29.92,WSW,240,1.5,5.8,49,0.00,BKN,,0.01,WeatherDisplay:10.37,2013-05-10 18:00:00,
2013-05-10 14:05:00,75.2,56.4,29.92,SSW,203,2.5,4.6,52,0.00,BKN,,0.01,WeatherDisplay:10.37,2013-05-10 18:05:00,
2013-05-10 14:10:00,75.4,56.0,29.91,West,270,2.8,3.5,51,0.00,BKN,,0.01,WeatherDisplay:10.37,2013-05-10 18:10:00,
2013-05-10 14:15:00,76.0,56.6,29.91,SW,235,3.4,5.8,51,0.00,BKN,,0.01,WeatherDisplay:10.37,2013-05-10 18:15:00,
2013-05-10 14:20:00,76.6,55.4,29.91,WNW,298,0.1,3.5,48,0.00,BKN,,0.01,WeatherDisplay:10.37,2013-05-10 18:20:00,
2013-05-10 14:25:00,76.9,56.8,29.91,SE,144,1.7,4.6,50,0.00,BKN,,0.01,WeatherDisplay:10.37,2013-05-10 18:25:00,
2013-05-10 14:30:00,77.6,56.9,29.91,South,188,1.3,3.5,49,0.00,BKN,,0.01,WeatherDisplay:10.37,2013-05-10 18:30:00,
2013-05-10 14:35:00,77.7,58.1,29.91,West,259,1.4,5.0,51,0.00,BKN,,0.01,WeatherDisplay:10.37,2013-05-10 18:35:00,
2013-05-10 14:40:00,77.6,56.4,29.90,SE,146,1.0,3.5,48,0.00,BKN,,0.01,WeatherDisplay:10.37,2013-05-10 18:40:00,
2013-05-10 14:45:00,77.8,56.0,29.91,WSW,244,2.0,4.6,47,0.00,BKN,,0.01,WeatherDisplay:10.37,2013-05-10 18:45:00,
2013-05-10 14:50:00,77.6,56.4,29.90,South,182,3.0,5.8,48,0.00,BKN,,0.01,WeatherDisplay:10.37,2013-05-10 18:50:00,
2013-05-10 14:56:00,77.4,56.7,29.90,WSW,252,2.6,5.8,49,0.00,BKN,,0.01,WeatherDisplay:10.37,2013-05-10 18:56:00,
2013-05-10 15:01:00,77.4,55.6,29.90,WNW,290,2.0,3.5,47,0.00,BKN,,0.01,WeatherDisplay:10.37,2013-05-10 19:01:00,
2013-05-10 15:06:00,77.3,57.2,29.90,WSW,255,3.8,5.0,50,0.00,BKN,,0.01,WeatherDisplay:10.37,2013-05-10 19:06:00,
2013-05-10 15:11:00,77.1,57.0,29.90,South,178,0.8,4.0,50,0.00,BKN,,0.01,WeatherDisplay:10.37,2013-05-10 19:11:00,
2013-05-10 15:16:00,76.8,56.8,29.89,SW,225,2.7,6.9,50,0.00,BKN,,0.01,WeatherDisplay:10.37,2013-05-10 19:16:00,
2013-05-10 15:22:00,76.4,55.8,29.89,WSW,241,4.2,6.9,49,0.00,BKN,,0.01,WeatherDisplay:10.37,2013-05-10 19:22:00,
2013-05-10 15:27:00,75.9,55.4,29.89,SW,230,2.2,6.0,49,0.00,BKN,,0.01,WeatherDisplay:10.37,2013-05-10 19:27:00,
2013-05-10 15:32:00,75.6,55.1,29.89,WSW,242,1.5,3.5,49,0.00,BKN,,0.01,WeatherDisplay:10.37,2013-05-10 19:32:00,
2013-05-10 15:37:00,75.4,56.5,29.89,WSW,242,0.0,2.3,52,0.00,BKN,,0.01,WeatherDisplay:10.37,2013-05-10 19:37:00,
2013-05-10 15:42:00,75.6,56.2,29.89,WSW,242,1.6,4.0,51,0.00,BKN,,0.01,WeatherDisplay:10.37,2013-05-10 19:42:00,
2013-05-10 15:47:00,75.8,56.4,29.89,WSW,242,0.1,1.2,51,0.00,BKN,,0.01,WeatherDisplay:10.37,2013-05-10 19:47:00,
2013-05-10 15:52:00,76.0,57.1,29.89,WSW,256,1.9,4.6,52,0.00,BKN,,0.01,WeatherDisplay:10.37,2013-05-10 19:52:00,
2013-05-10 15:57:00,76.1,58.2,29.89,WSW,254,0.1,2.3,54,0.00,BKN,,0.01,WeatherDisplay:10.37,2013-05-10 19:57:00,
2013-05-10 16:02:00,76.4,56.4,29.89,South,186,1.3,5.8,50,0.00,OVC,,0.01,WeatherDisplay:10.37,2013-05-10 20:02:00,
2013-05-10 16:07:00,76.5,56.5,29.88,SSE,166,1.2,3.5,50,0.00,OVC,,0.01,WeatherDisplay:10.37,2013-05-10 20:07:00,
2013-05-10 16:12:00,76.4,58.0,29.88,SSW,196,2.0,6.0,53,0.00,OVC,,0.01,WeatherDisplay:10.37,2013-05-10 20:12:00,
2013-05-10 16:17:00,76.1,57.7,29.88,SSW,211,0.6,3.0,53,0.00,OVC,,0.01,WeatherDisplay:10.37,2013-05-10 20:17:00,
2013-05-10 16:22:00,75.6,56.2,29.88,South,182,1.6,4.6,51,0.00,OVC,,0.01,WeatherDisplay:10.37,2013-05-10 20:22:00,
2013-05-10 16:28:00,75.3,58.5,29.88,SSW,202,0.1,1.0,56,0.00,OVC,,0.01,WeatherDisplay:10.37,2013-05-10 20:28:00,
2013-05-10 16:33:00,75.1,56.8,29.88,SW,221,2.1,5.8,53,0.00,OVC,,0.01,WeatherDisplay:10.37,2013-05-10 20:33:00,
2013-05-10 16:38:00,75.0,56.7,29.88,SW,222,0.5,3.5,53,0.00,OVC,,0.01,WeatherDisplay:10.37,2013-05-10 20:38:00,
2013-05-10 16:43:00,74.9,59.1,29.88,SW,217,1.8,3.5,58,0.00,OVC,,0.01,WeatherDisplay:10.37,2013-05-10 20:43:00,
2013-05-10 16:48:00,74.7,55.4,29.88,SSW,203,0.3,4.0,51,0.00,OVC,,0.01,WeatherDisplay:10.37,2013-05-10 20:48:00,
2013-05-10 16:54:00,74.7,56.9,29.88,SW,219,0.6,3.5,54,0.00,OVC,,0.01,WeatherDisplay:10.37,2013-05-10 20:54:00,
2013-05-10 16:59:00,74.7,56.9,29.88,SW,230,0.7,3.5,54,0.00,OVC,,0.01,WeatherDisplay:10.37,2013-05-10 20:59:00,
2013-05-10 17:04:00,75.1,57.8,29.88,SSW,213,2.6,4.0,55,0.00,OVC,,0.01,WeatherDisplay:10.37,2013-05-10 21:04:00,
2013-05-10 17:09:00,75.7,57.4,29.88,SW,219,2.6,4.6,53,0.00,OVC,,0.01,WeatherDisplay:10.37,2013-05-10 21:09:00,
2013-05-10 17:14:00,76.0,57.1,29.87,West,275,1.5,3.5,52,0.00,OVC,,0.01,WeatherDisplay:10.37,2013-05-10 21:14:00,
2013-05-10 17:19:00,75.9,57.0,29.87,SSW,198,2.5,5.8,52,0.00,OVC,,0.01,WeatherDisplay:10.37,2013-05-10 21:19:00,
2013-05-10 17:24:00,75.7,57.9,29.87,SSW,211,1.9,5.0,54,0.00,OVC,,0.01,WeatherDisplay:10.37,2013-05-10 21:24:00,
2013-05-10 17:29:00,75.3,57.5,29.87,SSW,198,1.0,3.5,54,0.00,OVC,,0.01,WeatherDisplay:10.37,2013-05-10 21:29:00,
2013-05-10 17:34:00,75.1,57.8,29.87,South,178,0.2,4.6,55,0.00,OVC,,0.01,WeatherDisplay:10.37,2013-05-10 21:34:00,
2013-05-10 17:39:00,75.0,57.2,29.87,SSW,202,2.9,7.0,54,0.00,OVC,,0.01,WeatherDisplay:10.37,2013-05-10 21:39:00,
2013-05-10 17:44:00,74.7,56.9,29.87,SSE,156,1.4,4.6,54,0.00,OVC,,0.01,WeatherDisplay:10.37,2013-05-10 21:44:00,
2013-05-10 17:50:00,74.4,56.7,29.87,SSE,159,2.6,6.9,54,0.00,OVC,,0.01,WeatherDisplay:10.37,2013-05-10 21:50:00,
2013-05-10 17:55:00,74.2,56.5,29.87,South,169,0.3,2.3,54,0.00,OVC,,0.01,WeatherDisplay:10.37,2013-05-10 21:55:00,
2013-05-10 17:58:00,74.1,56.9,29.87,SSE,151,0.0,1.2,55,0.00,OVC,,0.01,WeatherDisplay:10.37,2013-05-10 21:58:00,
2013-05-10 17:59:00,74.1,57.9,29.87,SSW,199,3.2,7.0,57,0.00,OVC,,0.01,WeatherDisplay:10.37,2013-05-10 21:59:00,
2013-05-10 18:04:00,73.8,57.1,29.87,SSE,168,0.4,3.5,56,0.00,OVC,,0.01,WeatherDisplay:10.37,2013-05-10 22:04:00,
2013-05-10 18:09:00,73.5,56.8,29.87,SW,215,0.2,1.2,56,0.00,OVC,,0.01,WeatherDisplay:10.37,2013-05-10 22:09:00,
2013-05-10 18:14:00,73.4,57.2,29.86,South,184,0.3,5.8,57,0.00,OVC,,0.01,WeatherDisplay:10.37,2013-05-10 22:14:00,
2013-05-10 18:19:00,73.2,57.1,29.86,South,175,0.4,1.0,57,0.00,OVC,,0.01,WeatherDisplay:10.37,2013-05-10 22:19:00,
2013-05-10 18:24:00,73.1,57.0,29.86,South,171,0.6,3.5,57,0.00,OVC,,0.01,WeatherDisplay:10.37,2013-05-10 22:24:00,
2013-05-10 18:29:00,72.9,57.3,29.86,South,185,1.9,3.5,58,0.00,OVC,,0.01,WeatherDisplay:10.37,2013-05-10 22:29:00,
2013-05-10 18:34:00,72.8,56.7,29.86,SSE,165,1.0,3.5,57,0.00,OVC,,0.01,WeatherDisplay:10.37,2013-05-10 22:34:00,
2013-05-10 18:39:00,72.6,57.0,29.86,SSE,150,0.0,1.2,58,0.00,OVC,,0.01,WeatherDisplay:10.37,2013-05-10 22:39:00,
2013-05-10 18:44:00,72.6,57.4,29.86,SSE,165,0.6,2.3,59,0.00,OVC,,0.01,WeatherDisplay:10.37,2013-05-10 22:44:00,
2013-05-10 18:49:00,72.5,57.8,29.86,SSE,164,0.0,0.0,60,0.00,OVC,,0.01,WeatherDisplay:10.37,2013-05-10 22:49:00,
2013-05-10 18:54:00,72.4,57.7,29.86,SSE,164,0.1,1.0,60,0.00,OVC,,0.01,WeatherDisplay:10.37,2013-05-10 22:54:00,
2013-05-10 18:59:00,72.2,57.5,29.86,South,190,0.5,3.5,60,0.00,OVC,,0.01,WeatherDisplay:10.37,2013-05-10 22:59:00,
2013-05-10 19:05:00,71.9,57.3,29.86,South,180,0.8,3.5,60,0.00,OVC,,0.01,WeatherDisplay:10.37,2013-05-10 23:05:00,
2013-05-10 19:10:00,71.7,56.6,29.86,South,184,1.3,6.9,59,0.00,OVC,,0.01,WeatherDisplay:10.37,2013-05-10 23:10:00,
2013-05-10 19:15:00,71.5,56.9,29.86,South,169,0.8,6.9,60,0.00,OVC,,0.01,WeatherDisplay:10.37,2013-05-10 23:15:00,
2013-05-10 19:20:00,71.3,56.7,29.86,South,184,2.8,2.8,60,0.00,OVC,,0.01,WeatherDisplay:10.37,2013-05-10 23:20:00,
2013-05-10 19:25:00,71.3,56.7,29.86,SSE,148,0.4,2.3,60,0.00,OVC,,0.01,WeatherDisplay:10.37,2013-05-10 23:25:00,
2013-05-10 19:30:00,71.2,56.6,29.86,South,173,0.5,2.3,60,0.00,OVC,,0.01,WeatherDisplay:10.37,2013-05-10 23:30:00,
2013-05-10 19:36:00,71.1,56.5,29.86,SSE,161,0.1,4.6,60,0.00,OVC,,0.01,WeatherDisplay:10.37,2013-05-10 23:36:00,
2013-05-10 19:41:00,70.9,56.3,29.86,SSW,211,0.5,3.5,60,0.00,OVC,,0.01,WeatherDisplay:10.37,2013-05-10 23:41:00,
2013-05-10 19:46:00,70.6,56.0,29.86,ESE,119,0.1,2.0,60,0.00,OVC,,0.01,WeatherDisplay:10.37,2013-05-10 23:46:00,
2013-05-10 19:51:00,70.5,56.4,29.86,SE,145,0.7,1.2,61,0.00,OVC,,0.01,WeatherDisplay:10.37,2013-05-10 23:51:00,
2013-05-10 19:56:00,70.3,56.2,29.86,SE,146,1.1,4.6,61,0.00,OVC,,0.01,WeatherDisplay:10.37,2013-05-10 23:56:00,
2013-05-10 20:01:00,70.1,56.5,29.86,SE,133,0.4,0.0,62,0.00,OVC,,0.01,WeatherDisplay:10.37,2013-05-11 00:01:00,
2013-05-10 20:06:00,69.8,56.2,29.86,ESE,117,0.1,3.5,62,0.00,OVC,,0.01,WeatherDisplay:10.37,2013-05-11 00:06:00,
2013-05-10 20:11:00,69.5,55.9,29.85,SE,139,1.3,3.5,62,0.00,OVC,,0.01,WeatherDisplay:10.37,2013-05-11 00:11:00,
2013-05-10 20:16:00,69.3,55.7,29.85,SE,128,0.4,3.0,62,0.00,OVC,,0.01,WeatherDisplay:10.37,2013-05-11 00:16:00,
2013-05-10 20:21:00,69.2,56.1,29.85,ESE,117,3.3,9.2,63,0.00,OVC,,0.01,WeatherDisplay:10.37,2013-05-11 00:21:00,
2013-05-10 20:26:00,69.2,56.1,29.85,ESE,119,1.1,9.2,63,0.00,OVC,,0.01,WeatherDisplay:10.37,2013-05-11 00:26:00,
2013-05-10 20:31:00,69.2,56.1,29.84,SE,140,0.9,3.5,63,0.00,OVC,,0.01,WeatherDisplay:10.37,2013-05-11 00:31:00,
2013-05-10 20:37:00,69.0,55.9,29.84,SE,139,0.9,3.5,63,0.00,OVC,,0.01,WeatherDisplay:10.37,2013-05-11 00:37:00,
2013-05-10 20:42:00,68.9,55.8,29.84,SSE,156,0.6,9.2,63,0.00,OVC,,0.01,WeatherDisplay:10.37,2013-05-11 00:42:00,
2013-05-10 20:47:00,68.8,56.1,29.84,ESE,123,0.2,3.5,64,0.00,OVC,,0.01,WeatherDisplay:10.37,2013-05-11 00:47:00,
2013-05-10 20:52:00,68.7,56.5,29.85,SSE,166,0.4,2.3,65,0.00,OVC,,0.01,WeatherDisplay:10.37,2013-05-11 00:52:00,
2013-05-10 20:57:00,68.6,56.4,29.85,SE,127,1.5,5.0,65,0.00,OVC,,0.01,WeatherDisplay:10.37,2013-05-11 00:57:00,
2013-05-10 21:02:00,68.6,56.4,29.85,ESE,123,0.3,4.6,65,0.00,OVC,,0.01,WeatherDisplay:10.37,2013-05-11 01:02:00,
2013-05-10 21:07:00,68.7,56.5,29.85,East,97,4.3,11.5,65,0.00,OVC,,0.01,WeatherDisplay:10.37,2013-05-11 01:07:00,
2013-05-10 21:12:00,68.8,56.6,29.85,SSE,163,2.0,12.7,65,0.00,OVC,,0.01,WeatherDisplay:10.37,2013-05-11 01:12:00,
2013-05-10 21:17:00,68.7,56.9,29.84,East,81,2.9,5.8,66,0.00,OVC,,0.01,WeatherDisplay:10.37,2013-05-11 01:17:00,
2013-05-10 21:22:00,68.6,56.8,29.84,SSW,195,3.6,11.0,66,0.00,OVC,,0.01,WeatherDisplay:10.37,2013-05-11 01:22:00,
2013-05-10 21:27:00,68.6,56.8,29.84,East,101,4.6,9.2,66,0.00,OVC,,0.01,WeatherDisplay:10.37,2013-05-11 01:27:00,
2013-05-10 21:33:00,68.6,57.2,29.85,SSE,162,2.7,4.6,67,0.00,OVC,,0.01,WeatherDisplay:10.37,2013-05-11 01:33:00,
2013-05-10 21:38:00,68.5,57.1,29.84,SSW,211,2.0,6.9,67,0.00,OVC,,0.01,WeatherDisplay:10.37,2013-05-11 01:38:00,
2013-05-10 21:43:00,68.4,57.4,29.84,South,178,3.4,10.4,68,0.00,OVC,,0.01,WeatherDisplay:10.37,2013-05-11 01:43:00,
2013-05-10 21:48:00,68.1,57.1,29.84,SE,140,0.1,3.5,68,0.00,OVC,,0.01,WeatherDisplay:10.37,2013-05-11 01:48:00,
2013-05-10 21:53:00,67.9,56.9,29.84,SSE,152,0.9,3.5,68,0.00,OVC,,0.01,WeatherDisplay:10.37,2013-05-11 01:53:00,
2013-05-10 21:58:00,67.8,56.9,29.84,SE,138,0.5,3.5,68,0.00,OVC,,0.01,WeatherDisplay:10.37,2013-05-11 01:58:00,
2013-05-10 22:04:00,67.7,57.2,29.84,SE,130,1.2,3.5,69,0.00,OVC,,0.01,WeatherDisplay:10.37,2013-05-11 02:04:00,
2013-05-10 22:09:00,67.6,57.1,29.83,ESE,115,0.2,4.6,69,0.00,OVC,,0.01,WeatherDisplay:10.37,2013-05-11 02:09:00,
2013-05-10 22:14:00,67.5,57.0,29.83,SSE,154,1.0,3.5,69,0.00,OVC,,0.01,WeatherDisplay:10.37,2013-05-11 02:14:00,
2013-05-10 22:19:00,67.4,56.9,29.83,SSE,165,0.3,1.2,69,0.00,OVC,,0.01,WeatherDisplay:10.37,2013-05-11 02:19:00,
2013-05-10 22:24:00,67.3,56.8,29.84,SE,128,0.3,3.5,69,0.00,OVC,,0.01,WeatherDisplay:10.37,2013-05-11 02:24:00,
2013-05-10 22:29:00,67.2,56.3,29.84,ESE,123,1.6,4.6,68,0.00,OVC,,0.01,WeatherDisplay:10.37,2013-05-11 02:29:00,
2013-05-10 22:34:00,67.2,56.7,29.84,SE,126,0.6,3.5,69,0.00,OVC,,0.01,WeatherDisplay:10.37,2013-05-11 02:34:00,
2013-05-10 22:39:00,67.2,56.7,29.84,SE,128,0.0,1.2,69,0.00,OVC,,0.01,WeatherDisplay:10.37,2013-05-11 02:39:00,
2013-05-10 22:45:00,67.1,56.6,29.84,SSE,150,2.5,4.6,69,0.00,OVC,,0.01,WeatherDisplay:10.37,2013-05-11 02:45:00,
2013-05-10 22:50:00,67.1,56.6,29.83,SE,145,1.9,2.0,69,0.00,OVC,,0.01,WeatherDisplay:10.37,2013-05-11 02:50:00,
2013-05-10 22:55:00,67.1,56.6,29.83,ESE,111,0.9,3.5,69,0.00,OVC,,0.01,WeatherDisplay:10.37,2013-05-11 02:55:00,
2013-05-10 23:00:00,67.0,56.5,29.83,East,87,1.2,3.5,69,0.00,OVC,,0.01,WeatherDisplay:10.37,2013-05-11 03:00:00,
2013-05-10 23:05:00,67.0,56.9,29.83,ESE,109,1.6,5.0,70,0.00,OVC,,0.01,WeatherDisplay:10.37,2013-05-11 03:05:00,
2013-05-10 23:10:00,66.9,56.8,29.82,SE,132,2.1,2.3,70,0.00,OVC,,0.01,WeatherDisplay:10.37,2013-05-11 03:10:00,
2013-05-10 23:15:00,66.9,57.2,29.82,South,188,0.5,6.0,71,0.00,OVC,,0.01,WeatherDisplay:10.37,2013-05-11 03:15:00,
2013-05-10 23:20:00,66.8,57.1,29.82,SE,136,0.0,1.2,71,0.00,OVC,,0.01,WeatherDisplay:10.37,2013-05-11 03:20:00,
2013-05-10 23:25:00,66.7,57.0,29.82,SE,137,2.2,5.8,71,0.00,OVC,,0.01,WeatherDisplay:10.37,2013-05-11 03:25:00,
2013-05-10 23:30:00,66.7,57.0,29.81,SE,140,2.8,5.8,71,0.00,OVC,,0.01,WeatherDisplay:10.37,2013-05-11 03:30:00,
2013-05-10 23:35:00,66.7,57.4,29.81,NE,51,0.0,0.0,72,0.00,OVC,,0.01,WeatherDisplay:10.37,2013-05-11 03:35:00,
2013-05-10 23:40:00,66.6,57.3,29.81,SSE,166,3.1,6.0,72,0.00,OVC,,0.01,WeatherDisplay:10.37,2013-05-11 03:40:00,
2013-05-10 23:46:00,66.5,57.2,29.81,ESE,112,4.4,6.9,72,0.00,OVC,,0.01,WeatherDisplay:10.37,2013-05-11 03:46:00,
2013-05-10 23:51:00,66.5,57.2,29.81,SE,126,0.0,3.5,72,0.00,OVC,,0.01,WeatherDisplay:10.37,2013-05-11 03:51:00,
2013-05-10 23:56:00,66.6,57.3,29.81,SSE,152,3.8,11.5,72,0.00,OVC,,0.01,WeatherDisplay:10.37,2013-05-11 03:56:00,